sensor_id;sensor_type;location;lat;lon;timestamp;P1;durP1;ratioP1;P2;durP2;ratioP2
20669;SDS011;10494;50.868;4.180;2023-04-03T02:01:36;11.70;;;7.70;;
20669;SDS011;10494;50.868;4.180;2023-04-03T02:04:02;10.43;;;6.50;;
20669;SDS011;10494;50.868;4.180;2023-04-03T02:06:27;10.70;;;7.37;;
20669;SDS011;10494;50.868;4.180;2023-04-03T02:08:53;16.90;;;7.87;;
20669;SDS011;10494;50.868;4.180;2023-04-03T02:11:18;15.60;;;7.70;;
20669;SDS011;10494;50.868;4.180;2023-04-03T02:13:45;9.90;;;7.33;;
20669;SDS011;10494;50.868;4.180;2023-04-03T02:16:10;10.77;;;7.23;;
20669;SDS011;10494;50.868;4.180;2023-04-03T02:18:37;14.87;;;7.63;;
20669;SDS011;10494;50.868;4.180;2023-04-03T02:21:03;12.67;;;7.17;;
20669;SDS011;10494;50.868;4.180;2023-04-03T02:23:28;11.03;;;7.23;;
20669;SDS011;10494;50.868;4.180;2023-04-03T02:26:02;12.37;;;7.13;;
20669;SDS011;10494;50.868;4.180;2023-04-03T02:28:31;16.07;;;7.63;;
20669;SDS011;10494;50.868;4.180;2023-04-03T02:30:57;12.77;;;7.17;;
20669;SDS011;10494;50.868;4.180;2023-04-03T02:33:23;13.87;;;7.07;;
20669;SDS011;10494;50.868;4.180;2023-04-03T02:35:52;11.93;;;7.63;;
20669;SDS011;10494;50.868;4.180;2023-04-03T02:38:18;13.77;;;7.43;;
20669;SDS011;10494;50.868;4.180;2023-04-03T02:40:44;13.17;;;7.43;;
20669;SDS011;10494;50.868;4.180;2023-04-03T02:43:09;9.73;;;6.33;;
20669;SDS011;10494;50.868;4.180;2023-04-03T02:45:35;12.63;;;7.40;;
20669;SDS011;10494;50.868;4.180;2023-04-03T02:48:01;11.83;;;7.20;;
20669;SDS011;10494;50.868;4.180;2023-04-03T02:50:26;10.90;;;6.90;;
20669;SDS011;10494;50.868;4.180;2023-04-03T02:52:52;15.33;;;7.67;;
20669;SDS011;10494;50.868;4.180;2023-04-03T02:55:17;12.30;;;6.67;;
20669;SDS011;10494;50.868;4.180;2023-04-03T02:57:43;14.87;;;7.07;;
20669;SDS011;10494;50.868;4.180;2023-04-03T03:00:08;11.63;;;7.43;;
20669;SDS011;10494;50.868;4.180;2023-04-03T03:02:34;10.90;;;7.10;;
20669;SDS011;10494;50.868;4.180;2023-04-03T03:05:00;10.60;;;6.80;;
20669;SDS011;10494;50.868;4.180;2023-04-03T03:07:26;11.70;;;6.63;;
20669;SDS011;10494;50.868;4.180;2023-04-03T03:09:52;9.63;;;7.03;;
20669;SDS011;10494;50.868;4.180;2023-04-03T03:12:17;10.50;;;6.27;;
20669;SDS011;10494;50.868;4.180;2023-04-03T03:14:46;11.27;;;6.00;;
20669;SDS011;10494;50.868;4.180;2023-04-03T03:17:12;9.70;;;6.80;;
20669;SDS011;10494;50.868;4.180;2023-04-03T03:19:38;10.33;;;6.17;;
20669;SDS011;10494;50.868;4.180;2023-04-03T03:22:04;11.00;;;6.97;;
20669;SDS011;10494;50.868;4.180;2023-04-03T03:24:29;12.43;;;7.03;;
20669;SDS011;10494;50.868;4.180;2023-04-03T03:26:55;11.90;;;6.90;;
20669;SDS011;10494;50.868;4.180;2023-04-03T03:29:20;10.07;;;6.50;;
20669;SDS011;10494;50.868;4.180;2023-04-03T03:31:46;11.23;;;6.53;;
20669;SDS011;10494;50.868;4.180;2023-04-03T03:34:12;10.60;;;6.70;;
20669;SDS011;10494;50.868;4.180;2023-04-03T03:36:37;12.67;;;6.50;;
20669;SDS011;10494;50.868;4.180;2023-04-03T03:39:03;9.07;;;6.17;;
20669;SDS011;10494;50.868;4.180;2023-04-03T03:41:29;10.07;;;6.67;;
20669;SDS011;10494;50.868;4.180;2023-04-03T03:43:54;12.73;;;7.07;;
20669;SDS011;10494;50.868;4.180;2023-04-03T03:46:20;13.13;;;7.23;;
20669;SDS011;10494;50.868;4.180;2023-04-03T03:48:46;13.10;;;7.20;;
20669;SDS011;10494;50.868;4.180;2023-04-03T03:51:11;15.03;;;6.53;;
20669;SDS011;10494;50.868;4.180;2023-04-03T03:53:37;10.80;;;6.53;;
20669;SDS011;10494;50.868;4.180;2023-04-03T03:56:03;16.73;;;7.50;;
20669;SDS011;10494;50.868;4.180;2023-04-03T03:58:29;9.33;;;6.43;;
20669;SDS011;10494;50.868;4.180;2023-04-03T04:00:55;13.63;;;7.50;;
20669;SDS011;10494;50.868;4.180;2023-04-03T04:03:20;11.03;;;7.17;;
20669;SDS011;10494;50.868;4.180;2023-04-03T04:05:46;10.50;;;7.33;;
20669;SDS011;10494;50.868;4.180;2023-04-03T04:08:12;13.63;;;6.97;;
20669;SDS011;10494;50.868;4.180;2023-04-03T04:10:37;9.67;;;6.90;;
20669;SDS011;10494;50.868;4.180;2023-04-03T04:13:03;12.43;;;7.00;;
20669;SDS011;10494;50.868;4.180;2023-04-03T04:15:29;11.47;;;7.13;;
20669;SDS011;10494;50.868;4.180;2023-04-03T04:17:54;9.40;;;6.77;;
20669;SDS011;10494;50.868;4.180;2023-04-03T04:20:20;11.97;;;7.57;;
20669;SDS011;10494;50.868;4.180;2023-04-03T04:22:46;16.07;;;7.67;;
20669;SDS011;10494;50.868;4.180;2023-04-03T04:25:11;13.23;;;7.27;;
20669;SDS011;10494;50.868;4.180;2023-04-03T04:27:37;12.30;;;8.10;;
20669;SDS011;10494;50.868;4.180;2023-04-03T04:30:03;10.70;;;7.03;;
20669;SDS011;10494;50.868;4.180;2023-04-03T04:32:29;13.27;;;7.93;;
20669;SDS011;10494;50.868;4.180;2023-04-03T04:34:55;12.77;;;7.50;;
20669;SDS011;10494;50.868;4.180;2023-04-03T04:37:20;12.83;;;7.53;;
20669;SDS011;10494;50.868;4.180;2023-04-03T04:39:46;21.07;;;8.57;;
20669;SDS011;10494;50.868;4.180;2023-04-03T04:42:11;14.33;;;8.40;;
20669;SDS011;10494;50.868;4.180;2023-04-03T04:44:38;13.37;;;8.33;;
20669;SDS011;10494;50.868;4.180;2023-04-03T04:47:04;14.53;;;9.10;;
20669;SDS011;10494;50.868;4.180;2023-04-03T04:49:30;12.67;;;8.87;;
20669;SDS011;10494;50.868;4.180;2023-04-03T04:51:55;16.93;;;8.73;;
20669;SDS011;10494;50.868;4.180;2023-04-03T04:54:21;23.63;;;9.13;;
20669;SDS011;10494;50.868;4.180;2023-04-03T04:56:48;16.13;;;8.23;;
20669;SDS011;10494;50.868;4.180;2023-04-03T04:59:13;14.30;;;8.90;;
20669;SDS011;10494;50.868;4.180;2023-04-03T05:01:39;14.30;;;8.80;;
20669;SDS011;10494;50.868;4.180;2023-04-03T05:04:05;17.27;;;9.07;;
20669;SDS011;10494;50.868;4.180;2023-04-03T05:06:30;16.37;;;9.60;;
20669;SDS011;10494;50.868;4.180;2023-04-03T05:08:57;15.27;;;8.73;;
20669;SDS011;10494;50.868;4.180;2023-04-03T05:11:23;14.47;;;9.57;;
20669;SDS011;10494;50.868;4.180;2023-04-03T05:13:49;16.50;;;8.60;;
20669;SDS011;10494;50.868;4.180;2023-04-03T05:16:14;16.90;;;9.33;;
20669;SDS011;10494;50.868;4.180;2023-04-03T05:18:40;20.90;;;9.83;;
20669;SDS011;10494;50.868;4.180;2023-04-03T05:21:06;15.57;;;9.57;;
20669;SDS011;10494;50.868;4.180;2023-04-03T05:23:31;23.73;;;9.53;;
20669;SDS011;10494;50.868;4.180;2023-04-03T05:25:57;18.47;;;9.43;;
20669;SDS011;10494;50.868;4.180;2023-04-03T05:28:23;17.20;;;9.40;;
20669;SDS011;10494;50.868;4.180;2023-04-03T05:30:55;16.20;;;9.57;;
20669;SDS011;10494;50.868;4.180;2023-04-03T05:33:22;17.00;;;9.10;;
20669;SDS011;10494;50.868;4.180;2023-04-03T05:35:49;16.67;;;9.90;;
20669;SDS011;10494;50.868;4.180;2023-04-03T05:38:14;18.77;;;9.80;;
20669;SDS011;10494;50.868;4.180;2023-04-03T05:40:40;15.83;;;9.63;;
20669;SDS011;10494;50.868;4.180;2023-04-03T05:43:06;18.47;;;10.20;;
20669;SDS011;10494;50.868;4.180;2023-04-03T05:45:31;18.10;;;10.07;;
20669;SDS011;10494;50.868;4.180;2023-04-03T05:47:57;18.77;;;9.67;;
20669;SDS011;10494;50.868;4.180;2023-04-03T05:50:22;14.33;;;8.90;;
20669;SDS011;10494;50.868;4.180;2023-04-03T05:52:49;15.07;;;10.13;;
20669;SDS011;10494;50.868;4.180;2023-04-03T05:55:17;19.53;;;9.70;;
20669;SDS011;10494;50.868;4.180;2023-04-03T05:57:42;14.80;;;8.80;;
20669;SDS011;10494;50.868;4.180;2023-04-03T06:00:08;19.63;;;10.37;;
20669;SDS011;10494;50.868;4.180;2023-04-03T06:02:40;19.20;;;9.73;;
20669;SDS011;10494;50.868;4.180;2023-04-03T06:05:07;15.33;;;9.23;;
20669;SDS011;10494;50.868;4.180;2023-04-03T06:07:34;17.37;;;9.27;;
20669;SDS011;10494;50.868;4.180;2023-04-03T06:10:00;13.60;;;8.50;;
20669;SDS011;10494;50.868;4.180;2023-04-03T06:12:26;16.77;;;9.07;;
20669;SDS011;10494;50.868;4.180;2023-04-03T06:14:54;15.83;;;8.73;;
20669;SDS011;10494;50.868;4.180;2023-04-03T06:17:20;12.67;;;7.70;;
20669;SDS011;10494;50.868;4.180;2023-04-03T06:19:45;15.20;;;8.67;;
20669;SDS011;10494;50.868;4.180;2023-04-03T06:22:11;12.87;;;7.93;;
20669;SDS011;10494;50.868;4.180;2023-04-03T06:24:37;11.27;;;7.60;;
20669;SDS011;10494;50.868;4.180;2023-04-03T06:27:03;13.87;;;7.83;;
20669;SDS011;10494;50.868;4.180;2023-04-03T06:29:29;16.63;;;7.60;;
20669;SDS011;10494;50.868;4.180;2023-04-03T06:31:55;13.07;;;8.17;;
20669;SDS011;10494;50.868;4.180;2023-04-03T06:34:21;12.13;;;7.47;;
20669;SDS011;10494;50.868;4.180;2023-04-03T06:36:47;9.53;;;7.13;;
20669;SDS011;10494;50.868;4.180;2023-04-03T06:39:15;12.13;;;7.60;;
20669;SDS011;10494;50.868;4.180;2023-04-03T06:41:43;13.00;;;7.30;;
20669;SDS011;10494;50.868;4.180;2023-04-03T06:44:09;12.40;;;8.13;;
20669;SDS011;10494;50.868;4.180;2023-04-03T06:46:36;11.27;;;7.07;;
20669;SDS011;10494;50.868;4.180;2023-04-03T06:49:02;17.53;;;7.90;;
20669;SDS011;10494;50.868;4.180;2023-04-03T06:51:29;11.33;;;7.13;;
20669;SDS011;10494;50.868;4.180;2023-04-03T06:53:56;12.70;;;7.57;;
20669;SDS011;10494;50.868;4.180;2023-04-03T06:56:23;11.50;;;7.70;;
20669;SDS011;10494;50.868;4.180;2023-04-03T06:58:50;10.67;;;6.77;;
20669;SDS011;10494;50.868;4.180;2023-04-03T07:01:16;12.70;;;7.87;;
20669;SDS011;10494;50.868;4.180;2023-04-03T07:03:44;12.33;;;7.17;;
20669;SDS011;10494;50.868;4.180;2023-04-03T07:06:11;13.23;;;7.70;;
20669;SDS011;10494;50.868;4.180;2023-04-03T07:08:38;17.97;;;7.80;;
20669;SDS011;10494;50.868;4.180;2023-04-03T07:11:04;13.10;;;7.30;;
20669;SDS011;10494;50.868;4.180;2023-04-03T07:13:30;18.93;;;8.13;;
20669;SDS011;10494;50.868;4.180;2023-04-03T07:15:57;9.77;;;7.30;;
20669;SDS011;10494;50.868;4.180;2023-04-03T07:18:23;15.23;;;7.73;;
20669;SDS011;10494;50.868;4.180;2023-04-03T07:20:48;13.93;;;8.00;;
20669;SDS011;10494;50.868;4.180;2023-04-03T07:23:14;11.33;;;7.87;;
20669;SDS011;10494;50.868;4.180;2023-04-03T07:25:44;11.43;;;7.50;;
20669;SDS011;10494;50.868;4.180;2023-04-03T07:28:11;20.00;;;8.00;;
20669;SDS011;10494;50.868;4.180;2023-04-03T07:30:47;17.30;;;7.63;;
20669;SDS011;10494;50.868;4.180;2023-04-03T07:33:15;11.93;;;7.33;;
20669;SDS011;10494;50.868;4.180;2023-04-03T07:35:42;13.07;;;7.00;;
20669;SDS011;10494;50.868;4.180;2023-04-03T07:38:08;12.43;;;6.80;;
20669;SDS011;10494;50.868;4.180;2023-04-03T07:40:35;21.00;;;7.10;;
20669;SDS011;10494;50.868;4.180;2023-04-03T07:43:01;11.20;;;5.90;;
20669;SDS011;10494;50.868;4.180;2023-04-03T07:45:27;10.55;;;5.40;;
20669;SDS011;10494;50.868;4.180;2023-04-03T07:47:53;8.95;;;5.47;;
20669;SDS011;10494;50.868;4.180;2023-04-03T07:50:19;11.63;;;5.78;;
20669;SDS011;10494;50.868;4.180;2023-04-03T07:52:44;8.80;;;5.38;;
20669;SDS011;10494;50.868;4.180;2023-04-03T07:55:11;8.98;;;5.10;;
20669;SDS011;10494;50.868;4.180;2023-04-03T07:57:37;8.88;;;5.93;;
20669;SDS011;10494;50.868;4.180;2023-04-03T08:00:05;7.47;;;5.10;;
20669;SDS011;10494;50.868;4.180;2023-04-03T08:02:32;8.70;;;5.53;;
20669;SDS011;10494;50.868;4.180;2023-04-03T08:04:58;8.60;;;5.22;;
20669;SDS011;10494;50.868;4.180;2023-04-03T08:07:23;9.40;;;5.47;;
20669;SDS011;10494;50.868;4.180;2023-04-03T08:09:50;7.93;;;5.03;;
20669;SDS011;10494;50.868;4.180;2023-04-03T08:12:16;9.82;;;5.72;;
20669;SDS011;10494;50.868;4.180;2023-04-03T08:14:41;11.02;;;6.25;;
20669;SDS011;10494;50.868;4.180;2023-04-03T08:17:07;10.77;;;5.80;;
20669;SDS011;10494;50.868;4.180;2023-04-03T08:19:36;12.07;;;5.82;;
20669;SDS011;10494;50.868;4.180;2023-04-03T08:22:05;8.52;;;4.95;;
20669;SDS011;10494;50.868;4.180;2023-04-03T08:24:32;10.23;;;5.30;;
20669;SDS011;10494;50.868;4.180;2023-04-03T08:26:58;12.55;;;5.72;;
20669;SDS011;10494;50.868;4.180;2023-04-03T08:29:24;8.85;;;5.13;;
20669;SDS011;10494;50.868;4.180;2023-04-03T08:31:49;7.55;;;4.80;;
20669;SDS011;10494;50.868;4.180;2023-04-03T08:34:15;9.25;;;5.15;;
20669;SDS011;10494;50.868;4.180;2023-04-03T08:36:42;9.77;;;4.95;;
20669;SDS011;10494;50.868;4.180;2023-04-03T08:39:08;11.52;;;5.28;;
20669;SDS011;10494;50.868;4.180;2023-04-03T08:41:35;10.45;;;4.95;;
20669;SDS011;10494;50.868;4.180;2023-04-03T08:50:00;7.90;;;5.03;;
20669;SDS011;10494;50.868;4.180;2023-04-03T08:52:36;6.57;;;4.72;;
20669;SDS011;10494;50.868;4.180;2023-04-03T08:55:06;14.48;;;5.00;;
20669;SDS011;10494;50.868;4.180;2023-04-03T08:57:41;9.10;;;5.15;;
20669;SDS011;10494;50.868;4.180;2023-04-03T09:02:43;11.45;;;5.05;;
20669;SDS011;10494;50.868;4.180;2023-04-03T09:05:15;9.68;;;4.60;;
20669;SDS011;10494;50.868;4.180;2023-04-03T09:07:49;9.00;;;4.57;;
20669;SDS011;10494;50.868;4.180;2023-04-03T09:10:25;7.15;;;4.20;;
20669;SDS011;10494;50.868;4.180;2023-04-03T09:13:00;7.68;;;4.03;;
20669;SDS011;10494;50.868;4.180;2023-04-03T09:15:49;10.52;;;6.25;;
20669;SDS011;10494;50.868;4.180;2023-04-03T09:26:34;9.82;;;4.20;;
20669;SDS011;10494;50.868;4.180;2023-04-03T09:29:06;9.32;;;3.50;;
20669;SDS011;10494;50.868;4.180;2023-04-03T09:31:43;6.85;;;3.40;;
20669;SDS011;10494;50.868;4.180;2023-04-03T09:34:52;5.25;;;3.08;;
20669;SDS011;10494;50.868;4.180;2023-04-03T09:37:03;9.40;;;4.60;;
20669;SDS011;10494;50.868;4.180;2023-04-03T09:39:48;7.93;;;3.30;;
20669;SDS011;10494;50.868;4.180;2023-04-03T09:42:20;9.10;;;2.95;;
20669;SDS011;10494;50.868;4.180;2023-04-03T09:44:55;7.63;;;3.17;;
20669;SDS011;10494;50.868;4.180;2023-04-03T09:47:26;10.25;;;3.05;;
20669;SDS011;10494;50.868;4.180;2023-04-03T09:52:40;7.30;;;3.20;;
20669;SDS011;10494;50.868;4.180;2023-04-03T09:55:08;7.60;;;2.83;;
20669;SDS011;10494;50.868;4.180;2023-04-03T09:57:46;7.25;;;3.25;;
20669;SDS011;10494;50.868;4.180;2023-04-03T10:00:20;7.53;;;2.90;;
20669;SDS011;10494;50.868;4.180;2023-04-03T10:02:51;5.10;;;2.85;;
20669;SDS011;10494;50.868;4.180;2023-04-03T10:07:52;8.48;;;3.13;;
20669;SDS011;10494;50.868;4.180;2023-04-03T10:10:37;8.30;;;3.17;;
20669;SDS011;10494;50.868;4.180;2023-04-03T10:13:09;6.05;;;2.45;;
20669;SDS011;10494;50.868;4.180;2023-04-03T10:15:39;7.70;;;2.13;;
20669;SDS011;10494;50.868;4.180;2023-04-03T10:18:24;7.57;;;2.65;;
20669;SDS011;10494;50.868;4.180;2023-04-03T10:20:53;5.30;;;2.10;;
20669;SDS011;10494;50.868;4.180;2023-04-03T10:23:24;6.80;;;2.75;;
20669;SDS011;10494;50.868;4.180;2023-04-03T10:34:29;4.20;;;2.10;;
20669;SDS011;10494;50.868;4.180;2023-04-03T10:40:02;6.13;;;2.55;;
20669;SDS011;10494;50.868;4.180;2023-04-03T10:42:49;5.38;;;2.95;;
20669;SDS011;10494;50.868;4.180;2023-04-03T10:48:11;5.35;;;2.28;;
20669;SDS011;10494;50.868;4.180;2023-04-03T10:56:13;5.43;;;1.98;;
20669;SDS011;10494;50.868;4.180;2023-04-03T10:58:54;3.97;;;1.98;;
20669;SDS011;10494;50.868;4.180;2023-04-03T11:01:30;4.00;;;2.20;;
20669;SDS011;10494;50.868;4.180;2023-04-03T11:04:00;7.70;;;2.05;;
20669;SDS011;10494;50.868;4.180;2023-04-03T11:06:33;3.75;;;2.22;;
20669;SDS011;10494;50.868;4.180;2023-04-03T11:09:16;4.35;;;2.10;;
20669;SDS011;10494;50.868;4.180;2023-04-03T11:11:47;4.03;;;2.30;;
20669;SDS011;10494;50.868;4.180;2023-04-03T11:14:17;5.22;;;2.03;;
20669;SDS011;10494;50.868;4.180;2023-04-03T11:17:04;5.88;;;2.45;;
20669;SDS011;10494;50.868;4.180;2023-04-03T11:27:42;4.70;;;2.00;;
20669;SDS011;10494;50.868;4.180;2023-04-03T11:30:16;3.63;;;2.00;;
20669;SDS011;10494;50.868;4.180;2023-04-03T11:33:24;4.50;;;1.90;;
20669;SDS011;10494;50.868;4.180;2023-04-03T11:36:02;10.38;;;2.40;;
20669;SDS011;10494;50.868;4.180;2023-04-03T11:38:45;7.18;;;3.20;;
20669;SDS011;10494;50.868;4.180;2023-04-03T11:41:12;7.97;;;1.73;;
20669;SDS011;10494;50.868;4.180;2023-04-03T11:43:40;4.88;;;2.03;;
20669;SDS011;10494;50.868;4.180;2023-04-03T11:46:22;3.33;;;1.90;;
20669;SDS011;10494;50.868;4.180;2023-04-03T11:48:49;5.72;;;1.90;;
20669;SDS011;10494;50.868;4.180;2023-04-03T11:53:53;6.57;;;2.60;;
20669;SDS011;10494;50.868;4.180;2023-04-03T12:01:51;3.80;;;1.63;;
20669;SDS011;10494;50.868;4.180;2023-04-03T12:04:19;2.78;;;1.65;;
20669;SDS011;10494;50.868;4.180;2023-04-03T12:09:22;3.38;;;2.00;;
20669;SDS011;10494;50.868;4.180;2023-04-03T12:12:00;3.72;;;1.90;;
20669;SDS011;10494;50.868;4.180;2023-04-03T12:14:45;5.63;;;1.90;;
20669;SDS011;10494;50.868;4.180;2023-04-03T12:17:16;7.30;;;1.85;;
20669;SDS011;10494;50.868;4.180;2023-04-03T12:19:48;5.00;;;1.70;;
20669;SDS011;10494;50.868;4.180;2023-04-03T12:22:14;2.42;;;1.77;;
20669;SDS011;10494;50.868;4.180;2023-04-03T12:24:42;6.63;;;2.08;;
20669;SDS011;10494;50.868;4.180;2023-04-03T12:29:54;5.65;;;2.20;;
20669;SDS011;10494;50.868;4.180;2023-04-03T12:32:51;4.28;;;1.98;;
20669;SDS011;10494;50.868;4.180;2023-04-03T12:35:30;4.93;;;1.88;;
20669;SDS011;10494;50.868;4.180;2023-04-03T12:38:16;5.60;;;2.45;;
20669;SDS011;10494;50.868;4.180;2023-04-03T12:46:26;5.32;;;1.92;;
20669;SDS011;10494;50.868;4.180;2023-04-03T12:49:00;5.30;;;1.98;;
20669;SDS011;10494;50.868;4.180;2023-04-03T12:51:40;5.43;;;2.15;;
20669;SDS011;10494;50.868;4.180;2023-04-03T12:54:14;4.90;;;1.60;;
20669;SDS011;10494;50.868;4.180;2023-04-03T12:56:42;2.88;;;1.90;;
20669;SDS011;10494;50.868;4.180;2023-04-03T12:59:21;6.05;;;1.88;;
20669;SDS011;10494;50.868;4.180;2023-04-03T13:01:58;6.55;;;2.03;;
20669;SDS011;10494;50.868;4.180;2023-04-03T13:04:29;5.65;;;1.85;;
20669;SDS011;10494;50.868;4.180;2023-04-03T13:06:56;5.53;;;2.10;;
20669;SDS011;10494;50.868;4.180;2023-04-03T13:09:23;5.35;;;1.60;;
20669;SDS011;10494;50.868;4.180;2023-04-03T13:12:11;6.05;;;1.92;;
20669;SDS011;10494;50.868;4.180;2023-04-03T13:14:39;6.38;;;1.70;;
20669;SDS011;10494;50.868;4.180;2023-04-03T13:17:16;3.50;;;1.60;;
20669;SDS011;10494;50.868;4.180;2023-04-03T13:19:42;7.25;;;1.80;;
20669;SDS011;10494;50.868;4.180;2023-04-03T13:24:51;7.07;;;1.90;;
20669;SDS011;10494;50.868;4.180;2023-04-03T13:27:18;5.28;;;1.75;;
20669;SDS011;10494;50.868;4.180;2023-04-03T13:29:48;3.67;;;1.77;;
20669;SDS011;10494;50.868;4.180;2023-04-03T13:32:22;7.78;;;1.92;;
20669;SDS011;10494;50.868;4.180;2023-04-03T13:34:49;6.60;;;1.80;;
20669;SDS011;10494;50.868;4.180;2023-04-03T13:37:23;3.63;;;1.70;;
20669;SDS011;10494;50.868;4.180;2023-04-03T13:40:12;3.38;;;1.88;;
20669;SDS011;10494;50.868;4.180;2023-04-03T13:42:40;4.72;;;1.75;;
20669;SDS011;10494;50.868;4.180;2023-04-03T13:45:17;3.55;;;1.75;;
20669;SDS011;10494;50.868;4.180;2023-04-03T13:47:48;3.80;;;1.25;;
20669;SDS011;10494;50.868;4.180;2023-04-03T13:50:18;2.88;;;1.63;;
20669;SDS011;10494;50.868;4.180;2023-04-03T13:55:22;4.20;;;1.60;;
20669;SDS011;10494;50.868;4.180;2023-04-03T13:57:49;4.93;;;1.75;;
20669;SDS011;10494;50.868;4.180;2023-04-03T14:02:59;4.35;;;1.48;;
20669;SDS011;10494;50.868;4.180;2023-04-03T14:05:25;4.85;;;1.70;;
20669;SDS011;10494;50.868;4.180;2023-04-03T14:07:51;4.75;;;1.90;;
20669;SDS011;10494;50.868;4.180;2023-04-03T14:10:18;5.60;;;1.90;;
20669;SDS011;10494;50.868;4.180;2023-04-03T14:12:45;6.72;;;1.90;;
20669;SDS011;10494;50.868;4.180;2023-04-03T14:15:22;5.50;;;1.60;;
20669;SDS011;10494;50.868;4.180;2023-04-03T14:17:50;5.47;;;2.00;;
20669;SDS011;10494;50.868;4.180;2023-04-03T14:20:17;6.78;;;1.67;;
20669;SDS011;10494;50.868;4.180;2023-04-03T14:22:46;6.30;;;1.80;;
20669;SDS011;10494;50.868;4.180;2023-04-03T14:25:13;6.35;;;1.45;;
20669;SDS011;10494;50.868;4.180;2023-04-03T14:27:44;3.75;;;1.67;;
20669;SDS011;10494;50.868;4.180;2023-04-03T14:30:18;3.30;;;1.70;;
20669;SDS011;10494;50.868;4.180;2023-04-03T14:32:46;4.13;;;1.95;;
20669;SDS011;10494;50.868;4.180;2023-04-03T14:35:13;4.70;;;2.22;;
20669;SDS011;10494;50.868;4.180;2023-04-03T14:37:39;4.13;;;1.75;;
20669;SDS011;10494;50.868;4.180;2023-04-03T14:40:05;4.47;;;1.60;;
20669;SDS011;10494;50.868;4.180;2023-04-03T14:42:34;6.22;;;2.00;;
20669;SDS011;10494;50.868;4.180;2023-04-03T14:45:03;5.60;;;1.73;;
20669;SDS011;10494;50.868;4.180;2023-04-03T14:47:31;4.07;;;1.63;;
20669;SDS011;10494;50.868;4.180;2023-04-03T14:49:58;4.13;;;1.58;;
20669;SDS011;10494;50.868;4.180;2023-04-03T14:52:27;3.53;;;1.60;;
20669;SDS011;10494;50.868;4.180;2023-04-03T14:54:55;7.53;;;1.73;;
20669;SDS011;10494;50.868;4.180;2023-04-03T14:57:21;6.05;;;1.95;;
20669;SDS011;10494;50.868;4.180;2023-04-03T14:59:50;5.05;;;1.92;;
20669;SDS011;10494;50.868;4.180;2023-04-03T15:04:47;4.90;;;1.58;;
20669;SDS011;10494;50.868;4.180;2023-04-03T15:07:12;4.72;;;1.90;;
20669;SDS011;10494;50.868;4.180;2023-04-03T15:09:38;3.40;;;1.70;;
20669;SDS011;10494;50.868;4.180;2023-04-03T15:12:04;6.78;;;1.90;;
20669;SDS011;10494;50.868;4.180;2023-04-03T15:14:29;4.68;;;1.80;;
20669;SDS011;10494;50.868;4.180;2023-04-03T15:16:55;6.30;;;1.80;;
20669;SDS011;10494;50.868;4.180;2023-04-03T15:19:21;5.50;;;1.58;;
20669;SDS011;10494;50.868;4.180;2023-04-03T15:21:46;3.63;;;1.58;;
20669;SDS011;10494;50.868;4.180;2023-04-03T15:24:12;3.22;;;1.42;;
20669;SDS011;10494;50.868;4.180;2023-04-03T15:26:37;3.00;;;1.33;;
20669;SDS011;10494;50.868;4.180;2023-04-03T15:29:03;8.35;;;2.08;;
20669;SDS011;10494;50.868;4.180;2023-04-03T15:31:29;6.15;;;1.90;;
20669;SDS011;10494;50.868;4.180;2023-04-03T15:33:56;2.95;;;1.60;;
20669;SDS011;10494;50.868;4.180;2023-04-03T15:36:21;2.83;;;1.73;;
20669;SDS011;10494;50.868;4.180;2023-04-03T15:38:47;4.20;;;1.58;;
20669;SDS011;10494;50.868;4.180;2023-04-03T15:41:13;6.70;;;1.75;;
20669;SDS011;10494;50.868;4.180;2023-04-03T15:43:38;2.97;;;1.60;;
20669;SDS011;10494;50.868;4.180;2023-04-03T15:46:04;5.20;;;2.10;;
20669;SDS011;10494;50.868;4.180;2023-04-03T15:48:30;3.00;;;1.27;;
20669;SDS011;10494;50.868;4.180;2023-04-03T15:50:56;3.15;;;1.40;;
20669;SDS011;10494;50.868;4.180;2023-04-03T15:53:21;6.63;;;1.63;;
20669;SDS011;10494;50.868;4.180;2023-04-03T15:55:47;9.73;;;2.00;;
20669;SDS011;10494;50.868;4.180;2023-04-03T15:58:12;4.05;;;1.30;;
20669;SDS011;10494;50.868;4.180;2023-04-03T16:00:38;3.90;;;1.60;;
20669;SDS011;10494;50.868;4.180;2023-04-03T16:03:05;4.72;;;1.38;;
20669;SDS011;10494;50.868;4.180;2023-04-03T16:05:34;2.22;;;1.40;;
20669;SDS011;10494;50.868;4.180;2023-04-03T16:08:01;4.10;;;1.48;;
20669;SDS011;10494;50.868;4.180;2023-04-03T16:10:27;4.03;;;1.48;;
20669;SDS011;10494;50.868;4.180;2023-04-03T16:12:53;5.10;;;1.70;;
20669;SDS011;10494;50.868;4.180;2023-04-03T16:15:19;3.22;;;1.80;;
20669;SDS011;10494;50.868;4.180;2023-04-03T16:17:45;8.60;;;1.80;;
20669;SDS011;10494;50.868;4.180;2023-04-03T16:20:13;4.25;;;1.77;;
20669;SDS011;10494;50.868;4.180;2023-04-03T16:22:39;3.30;;;1.63;;
20669;SDS011;10494;50.868;4.180;2023-04-03T16:25:06;3.25;;;1.73;;
20669;SDS011;10494;50.868;4.180;2023-04-03T16:27:32;2.92;;;1.48;;
20669;SDS011;10494;50.868;4.180;2023-04-03T16:29:58;4.53;;;1.65;;
20669;SDS011;10494;50.868;4.180;2023-04-03T16:32:25;2.05;;;1.50;;
20669;SDS011;10494;50.868;4.180;2023-04-03T16:34:53;5.55;;;1.90;;
20669;SDS011;10494;50.868;4.180;2023-04-03T16:37:19;2.65;;;1.65;;
20669;SDS011;10494;50.868;4.180;2023-04-03T16:39:45;5.15;;;2.00;;
20669;SDS011;10494;50.868;4.180;2023-04-03T16:42:11;4.65;;;1.95;;
20669;SDS011;10494;50.868;4.180;2023-04-03T16:44:36;4.05;;;2.08;;
20669;SDS011;10494;50.868;4.180;2023-04-03T16:47:02;6.13;;;1.70;;
20669;SDS011;10494;50.868;4.180;2023-04-03T16:49:28;6.32;;;1.88;;
20669;SDS011;10494;50.868;4.180;2023-04-03T16:51:57;4.95;;;1.75;;
20669;SDS011;10494;50.868;4.180;2023-04-03T16:54:23;4.72;;;1.95;;
20669;SDS011;10494;50.868;4.180;2023-04-03T16:56:49;7.43;;;1.60;;
20669;SDS011;10494;50.868;4.180;2023-04-03T16:59:15;3.17;;;1.80;;
20669;SDS011;10494;50.868;4.180;2023-04-03T17:01:41;5.03;;;1.80;;
20669;SDS011;10494;50.868;4.180;2023-04-03T17:04:06;6.95;;;2.22;;
20669;SDS011;10494;50.868;4.180;2023-04-03T17:06:32;4.20;;;2.03;;
20669;SDS011;10494;50.868;4.180;2023-04-03T17:08:58;3.10;;;1.75;;
20669;SDS011;10494;50.868;4.180;2023-04-03T17:11:23;5.60;;;1.98;;
20669;SDS011;10494;50.868;4.180;2023-04-03T17:13:50;3.80;;;1.65;;
20669;SDS011;10494;50.868;4.180;2023-04-03T17:16:16;5.28;;;1.98;;
20669;SDS011;10494;50.868;4.180;2023-04-03T17:18:41;3.85;;;1.60;;
20669;SDS011;10494;50.868;4.180;2023-04-03T17:21:08;3.88;;;1.67;;
20669;SDS011;10494;50.868;4.180;2023-04-03T17:23:34;3.58;;;1.67;;
20669;SDS011;10494;50.868;4.180;2023-04-03T17:26:03;3.60;;;1.55;;
20669;SDS011;10494;50.868;4.180;2023-04-03T17:28:29;3.45;;;1.83;;
20669;SDS011;10494;50.868;4.180;2023-04-03T17:30:55;4.10;;;1.45;;
20669;SDS011;10494;50.868;4.180;2023-04-03T17:33:25;4.28;;;1.80;;
20669;SDS011;10494;50.868;4.180;2023-04-03T17:35:59;4.03;;;1.63;;
20669;SDS011;10494;50.868;4.180;2023-04-03T17:38:27;3.58;;;1.80;;
20669;SDS011;10494;50.868;4.180;2023-04-03T17:40:59;8.60;;;1.92;;
20669;SDS011;10494;50.868;4.180;2023-04-03T17:43:27;3.20;;;1.50;;
20669;SDS011;10494;50.868;4.180;2023-04-03T17:45:53;5.13;;;1.98;;
20669;SDS011;10494;50.868;4.180;2023-04-03T17:48:27;6.75;;;2.20;;
20669;SDS011;10494;50.868;4.180;2023-04-03T17:50:53;3.40;;;1.95;;
20669;SDS011;10494;50.868;4.180;2023-04-03T17:53:19;4.30;;;1.53;;
20669;SDS011;10494;50.868;4.180;2023-04-03T17:55:45;6.50;;;2.37;;
20669;SDS011;10494;50.868;4.180;2023-04-03T17:58:11;4.82;;;2.15;;
20669;SDS011;10494;50.868;4.180;2023-04-03T18:00:36;5.70;;;2.37;;
20669;SDS011;10494;50.868;4.180;2023-04-03T18:03:02;3.13;;;1.80;;
20669;SDS011;10494;50.868;4.180;2023-04-03T18:05:28;7.03;;;1.80;;
20669;SDS011;10494;50.868;4.180;2023-04-03T18:07:55;5.30;;;2.15;;
20669;SDS011;10494;50.868;4.180;2023-04-03T18:10:22;5.00;;;2.03;;